Time;durP1;ratioP1;P1;durP2;ratioP2;P2;SDS_P1;SDS_P2;PMS_P1;PMS_P2;Temp;Humidity;BMP_temperature;BMP_pressure;BME280_temperature;BME280_humidity;BME280_pressure;Samples;Min_cycle;Max_cycle;Signal;HPM_P1;HPM_P2
2021/09/26 00:01:09;;;;;;;12.50;6.30;;;;;;;14.89;100.00;95972.88;5054052;28;24451;-74
2021/09/26 00:03:35;;;;;;;7.75;5.93;;;;;;;14.92;100.00;95967.44;5054010;28;24427;-75
2021/09/26 00:06:02;;;;;;;8.48;6.75;;;;;;;14.92;100.00;95970.88;5053882;28;24422;-74
2021/09/26 00:08:28;;;;;;;10.07;6.47;;;;;;;14.94;100.00;95978.56;5054255;28;24485;-74
2021/09/26 00:10:54;;;;;;;8.18;6.20;;;;;;;14.98;100.00;95972.16;5054117;28;24473;-75
2021/09/26 00:13:22;;;;;;;8.98;6.70;;;;;;;14.94;100.00;95971.59;5055019;28;24497;-74
2021/09/26 00:15:49;;;;;;;7.63;6.80;;;;;;;14.92;100.00;95965.66;5054287;28;24435;-74
2021/09/26 00:18:15;;;;;;;7.45;5.78;;;;;;;14.94;100.00;95968.97;5054260;28;24482;-74
2021/09/26 00:20:42;;;;;;;7.97;6.47;;;;;;;14.92;100.00;95964.81;5053884;28;24481;-74
2021/09/26 00:23:08;;;;;;;7.88;6.43;;;;;;;14.85;100.00;95964.47;5054197;28;24427;-74
2021/09/26 00:25:35;;;;;;;7.00;6.30;;;;;;;14.82;100.00;95959.47;5054123;28;24415;-74
2021/09/26 00:28:01;;;;;;;11.63;7.10;;;;;;;14.73;100.00;95954.97;5054681;28;24419;-74
2021/09/26 00:30:29;;;;;;;7.47;6.50;;;;;;;14.68;100.00;95949.25;5054542;28;24423;-75
2021/09/26 00:32:55;;;;;;;8.48;6.88;;;;;;;14.64;100.00;95940.84;5053370;28;24496;-75
2021/09/26 00:35:22;;;;;;;13.07;6.93;;;;;;;14.54;100.00;95939.91;5053279;28;24832;-75
2021/09/26 00:37:48;;;;;;;7.00;6.30;;;;;;;14.36;100.00;95944.69;5053539;28;24425;-75
2021/09/26 00:40:15;;;;;;;9.00;6.45;;;;;;;14.20;100.00;95952.84;5053538;28;24419;-74
2021/09/26 00:42:41;;;;;;;10.05;6.82;;;;;;;14.08;100.00;95943.31;5053160;28;24797;-75
2021/09/26 00:45:09;;;;;;;11.27;6.28;;;;;;;14.04;100.00;95947.91;5053302;28;24469;-75
2021/09/26 00:47:37;;;;;;;7.15;6.07;;;;;;;14.17;100.00;95947.84;5053471;28;24853;-74
2021/09/26 00:50:04;;;;;;;6.35;5.75;;;;;;;14.28;100.00;95945.28;5053263;28;24450;-75
2021/09/26 00:52:31;;;;;;;9.23;6.28;;;;;;;14.35;100.00;95948.25;5053638;28;24426;-75
2021/09/26 00:54:57;;;;;;;6.90;5.93;;;;;;;14.39;100.00;95946.25;5053222;28;24447;-74
2021/09/26 00:57:24;;;;;;;8.40;6.30;;;;;;;14.41;100.00;95946.94;5052919;28;24419;-74
2021/09/26 00:59:51;;;;;;;9.33;6.73;;;;;;;14.41;100.00;95941.72;5053366;28;24512;-74
2021/09/26 01:02:17;;;;;;;7.63;6.53;;;;;;;14.42;100.00;95946.81;5053844;28;24426;-75
2021/09/26 01:04:45;;;;;;;7.20;6.30;;;;;;;14.36;100.00;95943.88;5052706;28;24501;-74
2021/09/26 01:07:17;;;;;;;8.57;6.82;;;;;;;14.27;100.00;95940.97;5052930;28;24960;-74
2021/09/26 01:09:51;;;;;;;8.73;7.05;;;;;;;14.19;100.00;95939.91;5052834;28;24419;-74
2021/09/26 01:12:27;;;;;;;6.97;6.30;;;;;;;14.17;100.00;95944.41;5053044;28;24419;-74
2021/09/26 01:15:01;;;;;;;8.35;6.93;;;;;;;14.09;100.00;95944.13;5052433;28;24450;-75
2021/09/26 01:17:31;;;;;;;7.18;6.20;;;;;;;13.90;100.00;95944.66;5052829;28;24430;-75
2021/09/26 01:20:41;;;;;;;8.33;6.97;;;;;;;13.89;100.00;95946.44;5052647;28;24578;-74
2021/09/26 01:23:49;;;;;;;7.78;5.85;;;;;;;13.99;100.00;95941.38;5052735;28;24451;-74
2021/09/26 01:26:25;;;;;;;8.32;6.93;;;;;;;14.09;100.00;95946.72;5030392;28;24497;-74
2021/09/26 01:29:04;;;;;;;6.28;5.68;;;;;;;14.17;100.00;95945.25;5052778;28;24427;-74
2021/09/26 01:31:35;;;;;;;8.00;6.07;;;;;;;14.20;100.00;95946.75;5052450;28;24979;-74
2021/09/26 01:34:06;;;;;;;8.40;6.53;;;;;;;14.08;100.00;95950.28;5052282;28;24852;-74
2021/09/26 01:36:38;;;;;;;7.90;6.32;;;;;;;13.96;100.00;95950.25;5052479;28;24454;-74
2021/09/26 01:39:06;;;;;;;7.13;6.30;;;;;;;14.03;100.00;95943.66;5053149;28;24473;-74
2021/09/26 01:41:36;;;;;;;7.93;6.53;;;;;;;13.89;100.00;95936.00;5053530;28;24419;-74
2021/09/26 01:44:08;;;;;;;11.35;6.55;;;;;;;13.93;100.00;95950.47;5053291;28;25026;-75
2021/09/26 01:46:40;;;;;;;10.55;6.38;;;;;;;13.95;100.00;95951.19;5053197;28;24422;-75
2021/09/26 01:49:13;;;;;;;8.65;6.55;;;;;;;13.73;100.00;95964.13;5053228;28;24415;-75
2021/09/26 01:51:43;;;;;;;10.02;6.70;;;;;;;13.63;100.00;95970.91;5052485;28;24465;-74
2021/09/26 01:54:13;;;;;;;6.45;5.78;;;;;;;13.68;100.00;95967.06;5052163;28;24463;-74
2021/09/26 01:56:42;;;;;;;9.35;6.80;;;;;;;13.49;100.00;95966.69;5051821;28;24963;-74
2021/09/26 01:59:10;;;;;;;8.63;6.35;;;;;;;13.38;100.00;95961.41;5053079;28;24419;-75
2021/09/26 02:01:40;;;;;;;8.07;6.53;;;;;;;13.42;100.00;95963.72;5052707;28;24430;-74
2021/09/26 02:04:07;;;;;;;7.10;6.40;;;;;;;13.48;100.00;95955.47;5051584;28;24488;-74
2021/09/26 02:06:35;;;;;;;6.80;6.10;;;;;;;13.51;100.00;95959.63;5051484;28;24423;-74
2021/09/26 02:09:02;;;;;;;9.48;6.60;;;;;;;13.51;100.00;95965.66;5052501;28;24485;-74
2021/09/26 02:11:29;;;;;;;10.55;6.20;;;;;;;13.50;100.00;95963.16;5053050;28;24474;-74
2021/09/26 02:13:56;;;;;;;7.07;6.43;;;;;;;13.46;100.00;95957.34;5053075;28;24854;-74
2021/09/26 02:16:24;;;;;;;7.32;6.55;;;;;;;13.49;100.00;95964.09;5052263;28;24432;-74
2021/09/26 02:18:54;;;;;;;6.60;6.00;;;;;;;13.55;100.00;95967.09;5052343;28;24426;-74
2021/09/26 02:21:21;;;;;;;6.63;6.03;;;;;;;13.69;100.00;95954.88;5052262;28;24423;-74
2021/09/26 02:23:49;;;;;;;8.88;6.65;;;;;;;13.76;100.00;95954.31;5051894;28;24430;-74
2021/09/26 02:26:16;;;;;;;6.85;6.20;;;;;;;13.83;100.00;95957.31;5051141;28;24427;-75
2021/09/26 02:28:43;;;;;;;7.75;6.15;;;;;;;13.73;100.00;95954.53;5051374;28;24522;-74
2021/09/26 02:31:10;;;;;;;7.75;6.47;;;;;;;13.72;100.00;95952.03;5051842;28;24419;-74
2021/09/26 02:33:37;;;;;;;8.10;6.80;;;;;;;13.70;100.00;95949.53;5052119;28;24434;-74
2021/09/26 02:36:06;;;;;;;7.80;6.40;;;;;;;13.70;100.00;95956.53;5051367;28;24839;-74
2021/09/26 02:38:34;;;;;;;9.95;7.07;;;;;;;13.70;100.00;95948.72;5051956;28;24473;-74
2021/09/26 02:41:07;;;;;;;8.43;6.18;;;;;;;13.68;100.00;95945.38;5051424;28;24415;-74
2021/09/26 02:43:39;;;;;;;7.75;6.55;;;;;;;13.74;100.00;95947.56;5051092;28;24434;-74
2021/09/26 02:46:09;;;;;;;7.65;6.10;;;;;;;13.74;100.00;95948.38;5051312;28;24423;-74
2021/09/26 02:48:36;;;;;;;8.47;6.40;;;;;;;13.77;100.00;95942.13;5051517;28;24488;-74
2021/09/26 02:51:05;;;;;;;7.10;6.40;;;;;;;13.78;100.00;95933.38;5050881;28;24953;-75
2021/09/26 02:53:32;;;;;;;6.90;6.18;;;;;;;13.61;100.00;95944.16;5051028;28;24463;-74
2021/09/26 02:56:02;;;;;;;8.57;6.25;;;;;;;13.53;100.00;95937.75;5051143;28;24443;-74
2021/09/26 02:58:29;;;;;;;9.57;6.43;;;;;;;13.59;100.00;95936.47;5051085;28;24975;-74
2021/09/26 03:00:56;;;;;;;7.77;5.57;;;;;;;13.67;100.00;95928.94;5051189;28;24431;-74
2021/09/26 03:03:25;;;;;;;6.10;5.55;;;;;;;13.75;100.00;95917.97;5084716;22;24526;-76
2021/09/26 03:05:53;;;;;;;8.00;5.80;;;;;;;13.76;100.00;95923.06;5029905;28;25006;-76
2021/09/26 03:08:22;;;;;;;6.90;6.20;;;;;;;13.66;100.00;95923.84;5026769;28;24980;-76
2021/09/26 03:10:52;;;;;;;7.07;6.15;;;;;;;13.63;100.00;95929.28;5030268;28;24428;-76
2021/09/26 03:13:19;;;;;;;8.17;5.80;;;;;;;13.74;100.00;95924.94;5030707;28;24517;-76
2021/09/26 03:15:45;;;;;;;7.13;5.93;;;;;;;13.68;100.00;95925.41;5030185;28;24477;-76
2021/09/26 03:18:12;;;;;;;8.02;6.00;;;;;;;13.58;100.00;95921.81;5030033;28;24486;-76
2021/09/26 03:20:39;;;;;;;6.33;5.63;;;;;;;13.64;100.00;95923.94;5030262;28;24439;-76
2021/09/26 03:23:06;;;;;;;8.00;5.72;;;;;;;13.75;100.00;95913.59;5030199;28;24793;-76
2021/09/26 03:25:34;;;;;;;7.13;5.88;;;;;;;13.86;100.00;95927.59;5029708;28;24811;-76
2021/09/26 03:28:01;;;;;;;8.52;5.40;;;;;;;13.85;100.00;95929.38;5030242;28;24439;-76
2021/09/26 03:30:29;;;;;;;14.75;5.47;;;;;;;13.83;100.00;95925.22;5029735;28;24422;-78
2021/09/26 03:32:56;;;;;;;8.25;5.72;;;;;;;13.82;100.00;95920.97;5030178;28;24489;-77
2021/09/26 03:35:22;;;;;;;7.22;5.53;;;;;;;13.83;100.00;95920.88;5029849;28;24466;-76
2021/09/26 03:37:49;;;;;;;6.90;5.22;;;;;;;13.83;100.00;95917.41;5030125;28;24412;-76
2021/09/26 03:40:16;;;;;;;6.07;5.18;;;;;;;13.77;100.00;95906.50;5030430;28;24489;-77
2021/09/26 03:42:44;;;;;;;10.02;6.47;;;;;;;13.63;100.00;95901.47;5030279;28;24547;-77
2021/09/26 03:45:12;;;;;;;10.75;5.88;;;;;;;13.52;100.00;95902.25;5030065;28;24965;-77
2021/09/26 03:47:39;;;;;;;14.30;5.30;;;;;;;13.60;100.00;95906.06;5030147;28;24419;-77
2021/09/26 03:50:07;;;;;;;8.23;5.90;;;;;;;13.68;100.00;95907.19;5029998;28;25013;-76
2021/09/26 03:52:35;;;;;;;6.65;5.25;;;;;;;13.76;100.00;95907.47;5030202;28;24427;-76
2021/09/26 03:55:01;;;;;;;5.85;5.28;;;;;;;13.84;100.00;95903.47;5029871;28;24454;-76
2021/09/26 03:57:28;;;;;;;7.38;5.30;;;;;;;13.79;100.00;95893.38;5030264;28;24785;-76
2021/09/26 03:59:56;;;;;;;8.00;5.55;;;;;;;13.66;100.00;95890.84;5030173;28;24419;-77
2021/09/26 04:02:22;;;;;;;7.78;5.60;;;;;;;13.63;100.00;95898.06;5029862;28;24427;-76
2021/09/26 04:04:48;;;;;;;7.07;5.32;;;;;;;13.67;100.00;95891.69;5029394;28;24424;-77
2021/09/26 04:07:15;;;;;;;7.10;5.38;;;;;;;13.72;100.00;95895.63;5030431;28;24825;-76
2021/09/26 04:09:41;;;;;;;7.20;5.65;;;;;;;13.64;100.00;95889.28;5029960;28;24474;-77
2021/09/26 04:12:08;;;;;;;6.05;5.50;;;;;;;13.63;100.00;95898.88;5030756;28;24419;-76
2021/09/26 04:14:35;;;;;;;9.07;6.63;;;;;;;13.50;100.00;95911.97;5031987;28;24530;-77
2021/09/26 04:17:02;;;;;;;8.50;5.97;;;;;;;13.08;100.00;95911.41;5034022;28;24478;-77
2021/09/26 04:19:29;;;;;;;6.75;5.63;;;;;;;13.07;100.00;95908.94;5033728;28;24427;-77
2021/09/26 04:21:55;;;;;;;6.18;5.57;;;;;;;13.14;100.00;95901.53;5034142;28;24420;-76
2021/09/26 04:24:22;;;;;;;7.78;5.78;;;;;;;13.20;100.00;95904.53;5034189;28;24432;-76
2021/09/26 04:26:48;;;;;;;7.13;5.50;;;;;;;13.12;100.00;95904.25;5033505;28;24444;-76
2021/09/26 04:29:15;;;;;;;7.20;5.78;;;;;;;13.05;100.00;95901.25;5033388;28;24780;-76
2021/09/26 04:31:41;;;;;;;6.50;5.57;;;;;;;13.06;100.00;95897.72;5035761;28;24420;-76
2021/09/26 04:34:09;;;;;;;7.18;5.68;;;;;;;13.10;100.00;95893.13;5036129;28;24446;-76
2021/09/26 04:36:36;;;;;;;8.07;5.15;;;;;;;13.13;100.00;95887.72;5036554;28;24503;-76
2021/09/26 04:39:02;;;;;;;6.20;5.45;;;;;;;13.18;100.00;95901.22;5037079;28;24474;-77
2021/09/26 04:41:29;;;;;;;7.80;5.22;;;;;;;13.08;100.00;95905.41;5037846;28;24411;-76
2021/09/26 04:43:55;;;;;;;9.43;4.97;;;;;;;13.06;100.00;95902.91;5037023;28;24427;-76
2021/09/26 04:46:22;;;;;;;6.15;4.80;;;;;;;13.10;100.00;95900.09;5034951;28;24423;-76
2021/09/26 04:48:48;;;;;;;7.90;5.47;;;;;;;13.13;100.00;95900.72;5034997;28;25091;-76
2021/09/26 04:51:16;;;;;;;5.15;4.53;;;;;;;13.15;100.00;95901.44;5035360;28;24450;-77
2021/09/26 04:53:43;;;;;;;5.50;4.97;;;;;;;13.20;100.00;95899.34;5034890;28;24436;-76
2021/09/26 04:56:09;;;;;;;7.60;5.20;;;;;;;13.23;100.00;95909.53;5032967;28;24506;-76
2021/09/26 04:58:36;;;;;;;6.15;4.82;;;;;;;13.24;100.00;95903.41;5033297;28;24486;-76
2021/09/26 05:01:02;;;;;;;6.50;4.75;;;;;;;13.21;100.00;95897.56;5033160;28;24847;-76
2021/09/26 05:03:29;;;;;;;6.70;4.40;;;;;;;13.23;100.00;95893.94;5032765;28;24440;-76
2021/09/26 05:05:55;;;;;;;5.43;4.82;;;;;;;13.34;100.00;95900.97;5033079;28;24481;-76
2021/09/26 05:08:23;;;;;;;7.65;5.10;;;;;;;13.19;100.00;95891.63;5032975;28;24809;-76
2021/09/26 05:10:49;;;;;;;6.00;5.00;;;;;;;13.24;100.00;95900.81;5032813;28;24404;-76
2021/09/26 05:13:16;;;;;;;7.37;5.40;;;;;;;13.06;100.00;95904.69;5034545;28;24479;-77
2021/09/26 05:15:42;;;;;;;5.97;5.07;;;;;;;12.94;100.00;95903.78;5036326;28;24436;-77
2021/09/26 05:18:09;;;;;;;5.57;4.70;;;;;;;12.87;100.00;95906.88;5036448;28;24423;-76
2021/09/26 05:20:35;;;;;;;6.35;4.88;;;;;;;12.82;100.00;95894.22;5036579;28;25007;-77
2021/09/26 05:23:02;;;;;;;7.72;4.72;;;;;;;12.79;100.00;95892.69;5035918;28;24440;-76
2021/09/26 05:25:29;;;;;;;4.90;4.30;;;;;;;12.80;100.00;95899.53;5034752;28;24474;-77
2021/09/26 05:27:56;;;;;;;4.88;4.22;;;;;;;12.75;100.00;95906.81;5035651;28;24420;-77
2021/09/26 05:30:23;;;;;;;4.93;4.40;;;;;;;12.77;100.00;95902.34;5034034;28;24506;-78
2021/09/26 05:32:49;;;;;;;7.45;5.18;;;;;;;12.74;100.00;95905.16;5026863;28;24435;-78
2021/09/26 05:35:16;;;;;;;8.18;4.30;;;;;;;12.78;100.00;95897.97;5031931;28;24451;-77
2021/09/26 05:37:42;;;;;;;8.45;4.70;;;;;;;12.77;100.00;95904.94;5032187;28;24412;-78
2021/09/26 05:40:09;;;;;;;4.35;3.95;;;;;;;12.86;100.00;95915.63;5032464;28;24546;-76
2021/09/26 05:42:37;;;;;;;5.20;4.32;;;;;;;12.73;100.00;95915.66;5031554;28;24416;-76
2021/09/26 05:45:05;;;;;;;3.78;3.38;;;;;;;12.69;100.00;95906.44;5031684;28;24969;-76
2021/09/26 05:47:31;;;;;;;4.63;3.83;;;;;;;12.92;100.00;95904.81;5032041;28;24447;-79
2021/09/26 05:49:57;;;;;;;9.83;5.00;;;;;;;12.94;100.00;95908.13;5031918;28;24786;-77
2021/09/26 05:52:24;;;;;;;5.10;4.10;;;;;;;12.88;100.00;95911.19;5031875;28;24952;-78
2021/09/26 05:54:51;;;;;;;5.10;4.13;;;;;;;12.91;100.00;95911.78;5031358;28;24545;-77
2021/09/26 05:57:18;;;;;;;5.90;4.43;;;;;;;12.95;100.00;95905.44;5032174;28;24503;-76
2021/09/26 05:59:45;;;;;;;9.20;5.10;;;;;;;12.96;100.00;95911.47;5032066;28;25052;-78
2021/09/26 06:02:13;;;;;;;5.10;4.53;;;;;;;13.04;100.00;95909.16;5031861;28;24435;-78
2021/09/26 06:04:39;;;;;;;5.97;4.88;;;;;;;13.10;100.00;95910.50;5031812;28;24965;-77
2021/09/26 06:07:06;;;;;;;7.65;5.03;;;;;;;13.12;100.00;95922.44;5032862;28;24419;-77
2021/09/26 06:09:32;;;;;;;6.07;4.95;;;;;;;13.14;100.00;95922.34;5032289;28;24416;-78
2021/09/26 06:11:59;;;;;;;7.63;5.43;;;;;;;13.13;100.00;95921.53;5032381;28;24653;-78
2021/09/26 06:14:25;;;;;;;7.10;4.28;;;;;;;13.19;100.00;95917.66;5031802;28;24494;-77
2021/09/26 06:16:53;;;;;;;7.95;5.15;;;;;;;13.23;100.00;95912.13;5032122;28;24474;-77
2021/09/26 06:19:19;;;;;;;8.32;4.60;;;;;;;13.36;100.00;95916.50;5032133;28;24428;-78
2021/09/26 06:21:46;;;;;;;5.47;4.80;;;;;;;13.58;100.00;95910.56;5032174;28;24428;-77
2021/09/26 06:24:13;;;;;;;5.80;4.47;;;;;;;13.92;100.00;95909.75;5031964;28;24849;-78
2021/09/26 06:26:40;;;;;;;5.47;4.35;;;;;;;14.02;100.00;95915.94;5031487;28;24419;-78
2021/09/26 06:29:07;;;;;;;7.38;5.03;;;;;;;14.00;100.00;95924.81;5031979;28;24494;-77
2021/09/26 06:31:33;;;;;;;7.55;4.55;;;;;;;13.99;100.00;95925.75;5031378;28;24432;-78
2021/09/26 06:34:01;;;;;;;4.85;4.38;;;;;;;14.06;100.00;95936.56;5031695;28;24821;-74
2021/09/26 06:36:28;;;;;;;6.68;5.07;;;;;;;14.00;100.00;95950.84;5031627;28;24984;-77
2021/09/26 06:38:54;;;;;;;9.48;5.53;;;;;;;13.91;100.00;95954.97;5031370;28;25030;-77
2021/09/26 06:41:22;;;;;;;6.70;5.28;;;;;;;13.85;100.00;95951.97;5031754;28;24466;-77
2021/09/26 06:43:49;;;;;;;5.47;4.88;;;;;;;13.71;100.00;95951.19;5031659;28;24438;-77
2021/09/26 06:46:15;;;;;;;8.27;5.50;;;;;;;13.78;100.00;95935.97;5031395;28;24431;-77
2021/09/26 06:48:42;;;;;;;9.98;5.00;;;;;;;13.89;100.00;95943.00;5031568;28;24427;-77
2021/09/26 06:51:09;;;;;;;7.90;5.45;;;;;;;14.00;100.00;95937.84;5031536;28;24435;-77
2021/09/26 06:53:36;;;;;;;8.23;4.70;;;;;;;14.12;100.00;95936.09;5030632;28;24427;-77
2021/09/26 06:56:02;;;;;;;6.60;5.00;;;;;;;14.35;100.00;95939.56;5031008;28;25002;-77
2021/09/26 06:58:29;;;;;;;9.43;5.27;;;;;;;14.50;100.00;95948.91;5031290;28;24502;-77
2021/09/26 07:00:55;;;;;;;8.32;4.97;;;;;;;14.69;100.00;95954.38;5030739;28;24979;-77
2021/09/26 07:03:22;;;;;;;8.30;4.82;;;;;;;14.82;100.00;95963.84;5031021;28;24428;-77
2021/09/26 07:05:48;;;;;;;6.85;4.85;;;;;;;14.84;100.00;95965.41;5031005;28;24443;-77
2021/09/26 07:08:16;;;;;;;5.55;4.78;;;;;;;14.82;100.00;95964.69;5031291;28;24428;-77
2021/09/26 07:10:42;;;;;;;6.10;4.82;;;;;;;14.84;100.00;95957.59;5031194;28;24439;-77
2021/09/26 07:13:09;;;;;;;7.20;4.85;;;;;;;14.82;100.00;95961.25;5030696;28;25019;-77
2021/09/26 07:15:35;;;;;;;6.20;4.77;;;;;;;14.94;100.00;95968.97;5029697;28;25028;-78
2021/09/26 07:18:02;;;;;;;7.00;4.75;;;;;;;15.21;100.00;95973.00;5030671;28;24956;-77
2021/09/26 07:20:29;;;;;;;6.32;4.38;;;;;;;15.32;100.00;95972.16;5030579;28;24957;-77
2021/09/26 07:22:55;;;;;;;6.20;4.68;;;;;;;15.56;100.00;95980.66;5030925;28;24432;-77
2021/09/26 07:25:23;;;;;;;7.90;5.22;;;;;;;15.89;100.00;95979.78;5030696;28;24427;-78
2021/09/26 07:27:50;;;;;;;6.88;4.90;;;;;;;16.16;100.00;95984.53;5030896;28;24474;-77
2021/09/26 07:30:16;;;;;;;6.75;5.00;;;;;;;16.04;100.00;95989.94;5031016;28;24507;-77
2021/09/26 07:32:43;;;;;;;8.77;5.50;;;;;;;15.90;100.00;95994.47;5030614;28;24436;-77
2021/09/26 07:35:10;;;;;;;7.60;5.07;;;;;;;15.68;100.00;96000.63;5030653;28;24435;-77
2021/09/26 07:37:37;;;;;;;8.35;4.68;;;;;;;15.59;100.00;96006.53;5030850;28;24424;-77
2021/09/26 07:40:05;;;;;;;14.77;4.77;;;;;;;15.48;100.00;96015.19;5030548;28;24424;-77
2021/09/26 07:42:33;;;;;;;5.47;4.03;;;;;;;15.34;100.00;96020.66;5019819;28;24416;-77
2021/09/26 07:45:02;;;;;;;8.15;4.85;;;;;;;15.23;100.00;96028.50;5030633;28;24424;-77
2021/09/26 07:47:29;;;;;;;6.70;4.03;;;;;;;15.14;100.00;96048.28;5030866;28;24459;-77
2021/09/26 07:49:55;;;;;;;7.45;4.63;;;;;;;14.98;100.00;96055.63;5030883;28;24524;-77
2021/09/26 07:52:22;;;;;;;8.93;4.90;;;;;;;14.83;100.00;96055.03;5030640;28;24463;-77
2021/09/26 07:54:49;;;;;;;7.18;5.07;;;;;;;14.85;100.00;96057.50;5030447;28;24439;-76
2021/09/26 07:57:16;;;;;;;7.53;5.22;;;;;;;14.82;100.00;96058.56;5030664;28;24452;-77
2021/09/26 07:59:44;;;;;;;7.70;5.10;;;;;;;14.89;100.00;96059.75;5030864;28;24513;-77
2021/09/26 08:02:10;;;;;;;6.47;4.88;;;;;;;14.93;100.00;96055.13;5030317;28;24845;-77
2021/09/26 08:04:37;;;;;;;8.20;5.28;;;;;;;14.97;100.00;96060.00;5030787;28;24494;-77
2021/09/26 08:07:04;;;;;;;12.95;5.28;;;;;;;15.04;100.00;96060.38;5034615;28;24420;-77
2021/09/26 08:09:30;;;;;;;8.63;4.88;;;;;;;15.10;100.00;96059.91;5034420;28;24486;-77
2021/09/26 08:11:57;;;;;;;8.45;4.78;;;;;;;15.12;100.00;96071.06;5033987;28;24431;-77
2021/09/26 08:14:23;;;;;;;9.40;4.95;;;;;;;15.16;100.00;96056.00;5035661;28;24432;-79
2021/09/26 08:16:51;;;;;;;6.78;4.82;;;;;;;15.27;100.00;96052.56;5036346;28;25028;-79
2021/09/26 08:19:21;;;;;;;10.18;5.00;;;;;;;15.48;100.00;96048.31;5038608;28;24419;-79
2021/09/26 08:21:48;;;;;;;13.68;5.50;;;;;;;15.53;100.00;96061.81;5040159;28;24496;-78
2021/09/26 08:31:50;;;;;;;9.48;5.25;;;;;;;15.55;100.00;96059.09;5012319;28;24449;-78
2021/09/26 08:34:27;;;;;;;8.00;5.03;;;;;;;15.68;100.00;96047.63;5012514;28;24441;-78
2021/09/26 08:39:58;;;;;;;7.55;4.72;;;;;;;16.03;100.00;96074.50;5032425;28;24451;-76
2021/09/26 08:42:24;;;;;;;8.25;5.72;;;;;;;15.91;100.00;96069.31;5033423;28;24493;-76
2021/09/26 08:44:51;;;;;;;8.63;5.15;;;;;;;15.74;100.00;96072.41;5033668;28;24423;-76
2021/09/26 08:47:18;;;;;;;5.35;4.50;;;;;;;15.70;100.00;96081.44;5033650;28;24444;-76
2021/09/26 08:49:46;;;;;;;7.20;4.93;;;;;;;15.57;100.00;96086.72;5033333;28;25027;-76
2021/09/26 08:52:13;;;;;;;5.82;4.75;;;;;;;15.57;100.00;96085.91;5033712;28;24423;-76
2021/09/26 08:54:40;;;;;;;6.53;4.90;;;;;;;15.58;100.00;96092.81;5033253;28;24797;-76
2021/09/26 08:57:07;;;;;;;11.55;5.80;;;;;;;15.55;100.00;96085.22;5033876;28;24428;-76
2021/09/26 08:59:33;;;;;;;10.32;5.22;;;;;;;15.60;100.00;96093.50;5033640;28;24805;-76
2021/09/26 09:02:02;;;;;;;9.02;4.95;;;;;;;15.63;100.00;96085.44;5033807;28;24432;-74
2021/09/26 09:04:36;;;;;;;8.00;5.25;;;;;;;15.68;100.00;96093.75;5033126;28;25067;-74
2021/09/26 09:07:06;;;;;;;8.18;5.30;;;;;;;15.75;100.00;96096.72;5033015;28;24539;-75
2021/09/26 09:09:47;;;;;;;7.87;5.10;;;;;;;15.78;100.00;96094.72;5033209;28;24478;-74
2021/09/26 09:12:14;;;;;;;7.85;5.40;;;;;;;15.86;100.00;96097.53;5033131;28;25003;-74
2021/09/26 09:14:53;;;;;;;7.65;5.65;;;;;;;15.88;100.00;96090.44;5032807;28;24489;-75
2021/09/26 09:17:27;;;;;;;12.43;6.03;;;;;;;15.91;100.00;96082.38;5032277;28;24428;-75
2021/09/26 09:20:12;;;;;;;9.45;6.32;;;;;;;15.99;100.00;96083.53;5033405;28;24489;-75
2021/09/26 09:22:41;;;;;;;7.78;6.15;;;;;;;16.08;100.00;96088.00;5032817;28;24435;-75
2021/09/26 09:25:08;;;;;;;10.35;5.65;;;;;;;16.11;100.00;96096.44;5032472;28;24969;-75
2021/09/26 09:27:35;;;;;;;9.80;6.38;;;;;;;16.11;100.00;96091.22;5032954;28;24442;-75
2021/09/26 09:30:02;;;;;;;11.68;6.70;;;;;;;16.10;100.00;96081.72;5033262;28;24430;-75
2021/09/26 09:32:29;;;;;;;8.68;6.85;;;;;;;16.10;100.00;96081.72;5032587;28;24782;-75
2021/09/26 09:34:55;;;;;;;8.98;6.82;;;;;;;16.10;100.00;96092.19;5032607;28;24517;-75
2021/09/26 09:37:24;;;;;;;10.65;7.22;;;;;;;16.13;100.00;96086.72;5032912;28;24443;-75
2021/09/26 09:40:11;;;;;;;9.55;7.18;;;;;;;16.16;100.00;96089.06;5032466;28;24431;-76
2021/09/26 09:42:40;;;;;;;13.23;7.90;;;;;;;16.18;100.00;96081.94;5032848;28;24431;-75
2021/09/26 09:45:22;;;;;;;10.50;7.80;;;;;;;16.20;100.00;96076.56;5032358;28;24447;-75
2021/09/26 09:48:12;;;;;;;12.60;8.40;;;;;;;16.16;100.00;96080.38;5032232;28;24502;-75
2021/09/26 09:50:54;;;;;;;12.68;7.85;;;;;;;16.14;100.00;96075.28;5032179;28;24423;-75
2021/09/26 09:53:33;;;;;;;15.43;8.20;;;;;;;16.20;100.00;96064.38;5032671;28;24427;-75
2021/09/26 09:56:08;;;;;;;14.02;8.25;;;;;;;16.17;100.00;96067.22;5032319;28;24451;-75
2021/09/26 09:58:37;;;;;;;10.48;8.63;;;;;;;16.20;100.00;96053.06;5032257;28;24428;-75
2021/09/26 10:01:06;;;;;;;10.65;7.80;;;;;;;16.29;100.00;96047.09;5031557;28;25003;-75
2021/09/26 10:03:36;;;;;;;12.02;8.70;;;;;;;16.38;100.00;96041.09;5032096;28;24511;-74
2021/09/26 10:06:17;;;;;;;11.80;9.07;;;;;;;16.57;100.00;96044.84;5032036;28;24810;-75
2021/09/26 10:08:44;;;;;;;13.00;8.52;;;;;;;16.85;100.00;96043.41;5031505;28;24440;-74
2021/09/26 10:11:12;;;;;;;12.45;8.52;;;;;;;17.17;100.00;96031.06;5031051;28;24993;-75
2021/09/26 10:13:38;;;;;;;13.30;9.48;;;;;;;17.49;100.00;96034.50;5031045;28;25008;-75
2021/09/26 10:16:06;;;;;;;12.77;9.48;;;;;;;17.73;100.00;96032.38;5031697;28;24992;-75
2021/09/26 10:18:33;;;;;;;9.45;8.25;;;;;;;17.85;100.00;96033.94;5031750;28;24837;-74
2021/09/26 10:21:02;;;;;;;11.93;9.02;;;;;;;18.03;100.00;96025.44;5031959;28;25011;-75
2021/09/26 10:23:28;;;;;;;11.65;8.95;;;;;;;18.25;100.00;96034.84;5032151;28;24423;-74
2021/09/26 10:25:56;;;;;;;9.60;8.60;;;;;;;18.32;100.00;96028.09;5031307;28;24474;-74
2021/09/26 10:28:26;;;;;;;11.60;8.65;;;;;;;18.27;100.00;96036.34;5030921;28;24775;-75
2021/09/26 10:30:53;;;;;;;11.70;8.50;;;;;;;18.22;100.00;96037.75;5031217;28;24424;-75
2021/09/26 10:33:20;;;;;;;11.25;9.00;;;;;;;18.10;100.00;96043.13;5031739;28;24436;-75
2021/09/26 10:35:47;;;;;;;9.50;7.88;;;;;;;18.03;100.00;96039.38;5031320;28;24443;-74
2021/09/26 10:38:14;;;;;;;9.93;8.05;;;;;;;18.10;100.00;96037.03;5031134;28;25019;-75
2021/09/26 10:40:41;;;;;;;9.02;7.80;;;;;;;18.16;100.00;96048.75;5031281;28;24428;-74
2021/09/26 10:43:18;;;;;;;9.77;8.05;;;;;;;18.21;100.00;96055.28;5031619;28;24797;-75
2021/09/26 10:45:47;;;;;;;11.73;8.10;;;;;;;18.32;100.00;96056.94;5031010;28;24431;-75
2021/09/26 10:48:14;;;;;;;9.70;8.05;;;;;;;18.38;100.00;96064.25;5031220;28;24498;-75
2021/09/26 10:50:42;;;;;;;9.48;7.82;;;;;;;18.74;100.00;96075.06;5031161;28;24431;-75
2021/09/26 10:53:10;;;;;;;11.65;8.18;;;;;;;18.91;100.00;96076.13;5031137;28;24416;-74
2021/09/26 10:55:37;;;;;;;13.95;8.13;;;;;;;19.01;100.00;96069.91;5031256;28;24994;-75
2021/09/26 10:58:15;;;;;;;10.40;8.13;;;;;;;19.17;100.00;96063.22;5031002;28;24430;-75
2021/09/26 11:00:43;;;;;;;9.23;8.02;;;;;;;19.16;100.00;96051.91;5030970;28;24439;-75
2021/09/26 11:03:15;;;;;;;8.73;7.78;;;;;;;19.15;100.00;96046.81;5030868;28;24426;-75
2021/09/26 11:05:42;;;;;;;9.38;7.30;;;;;;;19.31;100.00;96047.03;5030481;28;24431;-74
2021/09/26 11:08:11;;;;;;;8.73;7.90;;;;;;;19.38;100.00;96034.97;5030644;28;24458;-74
2021/09/26 11:10:49;;;;;;;9.88;7.43;;;;;;;19.48;100.00;96035.78;5031183;28;24415;-75
2021/09/26 11:13:25;;;;;;;9.13;7.63;;;;;;;19.67;100.00;96027.00;5030692;28;24821;-75
2021/09/26 11:16:00;;;;;;;9.00;7.32;;;;;;;19.66;100.00;96029.78;5030821;28;24455;-75
2021/09/26 11:19:05;;;;;;;8.80;6.82;;;;;;;19.56;100.00;96022.72;5030539;28;24439;-74
2021/09/26 11:22:06;;;;;;;8.13;6.90;;;;;;;19.58;100.00;96026.06;5030636;28;24439;-75
2021/09/26 11:24:43;;;;;;;11.43;6.60;;;;;;;19.68;100.00;96025.19;5030245;28;24426;-74
2021/09/26 11:27:22;;;;;;;11.95;7.30;;;;;;;19.75;100.00;96023.63;5030579;28;24444;-75
2021/09/26 11:30:18;;;;;;;7.72;6.55;;;;;;;19.99;100.00;96018.66;5030471;28;24420;-75
2021/09/26 11:32:55;;;;;;;10.55;6.80;;;;;;;20.34;96.41;96010.94;5028363;28;24439;-75
2021/09/26 11:35:26;;;;;;;6.93;6.22;;;;;;;20.28;94.54;96012.34;5028307;28;24478;-75
2021/09/26 11:38:04;;;;;;;7.78;6.10;;;;;;;20.33;95.56;96015.38;5030520;28;24423;-76
2021/09/26 11:41:05;;;;;;;8.35;6.30;;;;;;;20.36;94.02;96011.59;5030343;28;24422;-75
2021/09/26 11:43:34;;;;;;;10.65;6.70;;;;;;;20.49;94.83;96010.28;5030770;28;24438;-74